createdAt,value
2023-01-15T00:02:23.932Z,3.95
2023-01-15T00:04:52.708Z,4.72
2023-01-15T00:07:22.660Z,3.30
2023-01-15T00:09:52.195Z,3.60
2023-01-15T00:12:20.596Z,4.55
2023-01-15T00:14:48.977Z,4.72
2023-01-15T00:17:18.536Z,3.60
2023-01-15T00:19:48.161Z,3.17
2023-01-15T00:22:16.703Z,4.40
2023-01-15T00:25:03.931Z,3.78
2023-01-15T00:27:41.846Z,3.63
2023-01-15T00:30:13.996Z,3.25
2023-01-15T00:32:43.906Z,3.17
2023-01-15T00:35:15.574Z,3.38
2023-01-15T00:37:44.359Z,3.40
2023-01-15T00:40:17.027Z,2.80
2023-01-15T00:42:54.469Z,3.33
2023-01-15T00:45:24.096Z,4.93
2023-01-15T00:47:52.736Z,3.38
2023-01-15T00:50:21.401Z,2.92
2023-01-15T00:52:49.757Z,2.72
2023-01-15T00:55:19.686Z,3.75
2023-01-15T00:57:48.051Z,3.33
2023-01-15T01:00:17.392Z,3.05
2023-01-15T01:02:45.873Z,3.90
2023-01-15T01:05:14.345Z,3.40
2023-01-15T01:07:42.796Z,3.42
2023-01-15T01:10:11.964Z,3.28
2023-01-15T01:12:41.724Z,2.88
2023-01-15T01:15:11.674Z,3.13
2023-01-15T01:17:40.872Z,2.47
2023-01-15T01:20:13.597Z,2.97
2023-01-15T01:22:42.391Z,3.80
2023-01-15T01:25:11.825Z,3.72
2023-01-15T01:27:41.648Z,3.00
2023-01-15T01:30:12.958Z,3.25
2023-01-15T01:32:44.616Z,4.20
2023-01-15T01:35:13.449Z,3.65
2023-01-15T01:37:41.840Z,3.38
2023-01-15T01:40:12.282Z,2.75
2023-01-15T01:42:42.023Z,3.35
2023-01-15T01:45:25.788Z,4.35
2023-01-15T01:47:59.073Z,3.25
2023-01-15T01:50:29.490Z,4.00
2023-01-15T01:53:01.193Z,3.65
2023-01-15T01:55:31.162Z,3.22
2023-01-15T01:58:03.955Z,3.30
2023-01-15T02:00:35.686Z,3.45
2023-01-15T02:03:07.626Z,3.90
2023-01-15T02:05:40.405Z,3.80
2023-01-15T02:08:09.307Z,3.90
2023-01-15T02:10:37.995Z,3.42
2023-01-15T02:13:16.746Z,4.68
2023-01-15T02:15:51.605Z,4.63
2023-01-15T02:18:28.838Z,3.38
2023-01-15T02:21:02.594Z,3.80
2023-01-15T02:24:10.848Z,3.38
2023-01-15T02:27:12.746Z,2.72
2023-01-15T02:29:50.978Z,3.03
2023-01-15T02:32:28.205Z,2.95
2023-01-15T02:35:03.780Z,4.30
2023-01-15T02:37:38.417Z,3.38
2023-01-15T02:40:08.726Z,3.88
2023-01-15T02:42:39.673Z,4.57
2023-01-15T02:45:13.673Z,3.58
2023-01-15T02:47:45.533Z,4.40
2023-01-15T02:50:16.543Z,4.55
2023-01-15T02:52:50.598Z,3.38
2023-01-15T02:55:24.629Z,3.95
2023-01-15T02:58:00.227Z,3.90
2023-01-15T03:00:36.077Z,2.85
2023-01-15T03:03:12.020Z,2.97
2023-01-15T03:05:44.737Z,2.88
2023-01-15T03:08:13.388Z,2.80
2023-01-15T03:10:49.393Z,3.17
2023-01-15T03:13:30.178Z,3.20
2023-01-15T03:16:23.491Z,4.00
2023-01-15T03:18:57.419Z,3.00
2023-01-15T03:21:34.871Z,2.95
2023-01-15T03:24:06.410Z,3.65
2023-01-15T03:26:35.073Z,3.03
2023-01-15T03:29:09.604Z,2.53
2023-01-15T03:31:38.374Z,3.25
2023-01-15T03:34:07.365Z,2.95
2023-01-15T03:36:36.396Z,3.83
2023-01-15T03:39:05.615Z,3.13
2023-01-15T03:41:46.692Z,2.88
2023-01-15T03:44:28.478Z,3.20
2023-01-15T03:47:07.185Z,3.70
2023-01-15T03:49:48.953Z,3.58
2023-01-15T03:52:25.737Z,3.33
2023-01-15T03:55:01.522Z,2.80
2023-01-15T03:57:37.835Z,3.47
2023-01-15T04:00:15.904Z,2.72
2023-01-15T04:02:47.156Z,4.60
2023-01-15T04:05:17.524Z,3.40
2023-01-15T04:07:48.237Z,3.45
2023-01-15T04:10:16.911Z,3.50
2023-01-15T04:12:45.439Z,2.63
2023-01-15T04:15:15.330Z,3.33
2023-01-15T04:17:43.829Z,2.80
2023-01-15T04:20:13.784Z,3.25
2023-01-15T04:22:42.184Z,3.20
2023-01-15T04:25:12.372Z,4.10
2023-01-15T04:27:40.782Z,2.75
2023-01-15T04:30:11.151Z,2.70
2023-01-15T04:32:40.897Z,2.90
2023-01-15T04:35:10.187Z,2.50
2023-01-15T04:37:38.564Z,2.35
2023-01-15T04:40:09.236Z,2.78
2023-01-15T04:42:54.899Z,2.55
2023-01-15T04:45:23.338Z,2.55
2023-01-15T04:47:53.089Z,2.70
2023-01-15T04:50:21.568Z,3.13
2023-01-15T04:52:51.592Z,2.67
2023-01-15T04:55:20.035Z,2.58
2023-01-15T04:57:51.241Z,2.58
2023-01-15T05:00:20.884Z,2.97
2023-01-15T05:02:49.364Z,3.00
2023-01-15T05:05:19.337Z,3.08
2023-01-15T05:07:47.692Z,2.75
2023-01-15T05:10:16.377Z,2.72
2023-01-15T05:12:44.829Z,2.45
2023-01-15T05:15:13.353Z,2.40
2023-01-15T05:17:41.818Z,2.50
2023-01-15T05:20:12.295Z,3.15
2023-01-15T05:22:42.080Z,2.42
2023-01-15T05:25:11.197Z,2.95
2023-01-15T05:27:39.594Z,2.92
2023-01-15T05:30:10.170Z,2.58
2023-01-15T05:32:38.586Z,2.65
2023-01-15T05:35:08.403Z,2.33
2023-01-15T05:37:36.765Z,3.33
2023-01-15T05:40:08.796Z,2.75
2023-01-15T05:42:37.179Z,2.90
2023-01-15T05:45:06.547Z,2.20
2023-01-15T05:47:35.839Z,2.58
2023-01-15T05:50:04.368Z,2.92
2023-01-15T05:52:32.775Z,3.15
2023-01-15T05:55:01.157Z,1.98
2023-01-15T05:57:32.862Z,2.58
2023-01-15T06:00:01.308Z,2.35
2023-01-15T06:02:29.730Z,2.63
2023-01-15T06:04:58.230Z,3.03
2023-01-15T06:07:26.654Z,2.67
2023-01-15T06:09:55.033Z,2.30
2023-01-15T06:12:23.417Z,2.58
2023-01-15T06:14:53.146Z,2.78
2023-01-15T06:17:21.567Z,2.45
2023-01-15T06:19:49.974Z,2.22
2023-01-15T06:22:18.824Z,2.35
2023-01-15T06:24:47.225Z,2.25
2023-01-15T06:27:15.638Z,3.08
2023-01-15T06:29:44.021Z,2.90
2023-01-15T06:32:13.912Z,1.90
2023-01-15T06:34:44.640Z,2.38
2023-01-15T06:37:13.072Z,3.00
2023-01-15T06:39:41.458Z,2.55
2023-01-15T06:42:28.535Z,2.80
2023-01-15T06:45:14.105Z,2.15
2023-01-15T06:47:43.840Z,2.92
2023-01-15T06:50:13.715Z,3.08
2023-01-15T06:52:42.117Z,2.78
2023-01-15T06:55:11.711Z,2.40
2023-01-15T06:57:40.951Z,3.03
2023-01-15T07:00:11.680Z,2.70
2023-01-15T07:02:41.424Z,2.45
2023-01-15T07:05:11.916Z,2.92
2023-01-15T07:07:40.320Z,2.92
2023-01-15T07:10:10.717Z,3.28
2023-01-15T07:12:39.167Z,2.30
2023-01-15T07:15:09.216Z,2.65
2023-01-15T07:17:37.709Z,2.67
2023-01-15T07:20:08.182Z,2.38
2023-01-15T07:22:37.951Z,2.67
2023-01-15T07:25:08.324Z,3.05
2023-01-15T07:27:36.767Z,2.60
2023-01-15T07:30:06.148Z,2.35
2023-01-15T07:32:34.592Z,1.63
2023-01-15T07:35:03.069Z,2.30
2023-01-15T07:37:31.465Z,2.30
2023-01-15T07:40:01.239Z,3.05
2023-01-15T07:42:46.937Z,2.22
2023-01-15T07:45:32.949Z,3.20
2023-01-15T07:48:18.512Z,2.65
2023-01-15T07:50:46.967Z,2.15
2023-01-15T07:53:15.578Z,2.78
2023-01-15T07:55:45.346Z,2.50
2023-01-15T07:58:13.734Z,2.65
2023-01-15T08:00:42.262Z,2.00
2023-01-15T08:03:10.757Z,2.97
2023-01-15T08:05:39.138Z,2.20
2023-01-15T08:08:07.684Z,2.50
2023-01-15T08:10:56.719Z,3.10
2023-01-15T08:13:43.733Z,3.28
2023-01-15T08:16:12.403Z,3.38
2023-01-15T08:18:41.098Z,2.25
2023-01-15T08:21:16.586Z,2.58
2023-01-15T08:23:46.680Z,2.40
2023-01-15T08:26:15.221Z,2.83
2023-01-15T08:28:45.030Z,1.70
2023-01-15T08:31:13.553Z,2.30
2023-01-15T08:33:41.974Z,2.97
2023-01-15T08:36:11.209Z,2.13
2023-01-15T08:38:39.648Z,2.40
2023-01-15T08:41:08.128Z,2.20
2023-01-15T08:43:36.664Z,3.05
2023-01-15T08:46:07.882Z,2.30
2023-01-15T08:48:36.406Z,2.38
2023-01-15T08:51:07.306Z,2.45
2023-01-15T08:53:36.243Z,2.67
2023-01-15T08:56:05.146Z,2.97
2023-01-15T08:58:34.917Z,3.05
2023-01-15T09:01:09.850Z,2.63
2023-01-15T09:03:38.761Z,1.98
2023-01-15T09:06:07.591Z,2.97
2023-01-15T09:08:36.087Z,4.18
2023-01-15T09:11:06.998Z,4.57
2023-01-15T09:13:35.414Z,3.72
2023-01-15T09:16:07.408Z,2.60
2023-01-15T09:18:36.829Z,2.55
2023-01-15T09:21:06.018Z,2.60
2023-01-15T09:23:34.977Z,3.55
2023-01-15T09:26:06.778Z,2.38
2023-01-15T09:28:36.274Z,2.53
2023-01-15T09:31:06.340Z,2.30
2023-01-15T09:33:34.774Z,3.30
2023-01-15T09:36:03.255Z,3.13
2023-01-15T09:38:34.516Z,3.00
2023-01-15T09:41:33.304Z,3.40
2023-01-15T09:44:27.568Z,2.63
2023-01-15T09:47:08.859Z,3.10
2023-01-15T09:49:56.131Z,2.58
2023-01-15T09:52:39.097Z,2.47
2023-01-15T09:55:16.504Z,2.75
2023-01-15T09:57:47.062Z,2.20
2023-01-15T10:00:21.972Z,3.10
2023-01-15T10:02:57.739Z,2.13
2023-01-15T10:05:31.873Z,2.38
2023-01-15T10:08:07.110Z,3.22
2023-01-15T10:10:43.410Z,3.05
2023-01-15T10:13:28.876Z,3.78
2023-01-15T10:15:58.568Z,3.20
2023-01-15T10:18:30.604Z,2.45
2023-01-15T10:21:21.691Z,2.78
2023-01-15T10:24:03.672Z,1.63
2023-01-15T10:26:40.482Z,3.00
2023-01-15T10:29:19.303Z,2.15
2023-01-15T10:31:52.836Z,1.85
2023-01-15T10:35:17.026Z,2.60
2023-01-15T10:37:51.346Z,3.25
2023-01-15T10:41:04.866Z,3.45
2023-01-15T10:43:48.667Z,2.72
2023-01-15T10:46:19.668Z,2.65
2023-01-15T10:48:52.972Z,2.65
2023-01-15T10:51:25.715Z,2.67
2023-01-15T10:53:58.335Z,2.72
2023-01-15T10:56:35.143Z,2.53
2023-01-15T10:59:16.533Z,3.08
2023-01-15T11:01:45.234Z,4.00
2023-01-15T11:04:14.416Z,3.47
2023-01-15T11:06:44.297Z,3.50
2023-01-15T11:09:23.441Z,3.45
2023-01-15T11:12:12.813Z,2.55
2023-01-15T11:15:01.431Z,2.47
2023-01-15T11:17:55.217Z,3.38
2023-01-15T11:20:31.824Z,3.13
2023-01-15T11:23:12.508Z,2.72
2023-01-15T11:25:50.523Z,2.70
2023-01-15T11:28:21.359Z,2.95
2023-01-15T11:30:56.363Z,3.97
2023-01-15T11:33:28.031Z,3.28
2023-01-15T11:35:59.134Z,2.97
2023-01-15T11:38:31.216Z,2.67
2023-01-15T11:41:04.946Z,4.28
2023-01-15T11:43:50.917Z,2.80
2023-01-15T11:46:47.558Z,3.83
2023-01-15T11:49:38.715Z,3.42
2023-01-15T11:52:11.177Z,3.40
2023-01-15T11:54:44.612Z,3.67
2023-01-15T11:57:13.384Z,3.67
2023-01-15T11:59:49.417Z,3.85
2023-01-15T12:02:31.089Z,3.10
2023-01-15T12:05:03.438Z,2.97
2023-01-15T12:07:32.213Z,2.83
2023-01-15T12:10:21.782Z,3.08
2023-01-15T12:13:07.607Z,2.90
2023-01-15T12:15:45.412Z,2.35
2023-01-15T12:18:50.477Z,3.20
2023-01-15T12:21:43.996Z,3.58
2023-01-15T12:24:36.905Z,3.38
2023-01-15T12:27:29.930Z,4.38
2023-01-15T12:30:07.430Z,3.08
2023-01-15T12:32:46.081Z,3.38
2023-01-15T12:35:26.849Z,3.35
2023-01-15T12:38:02.822Z,3.50
2023-01-15T12:40:41.807Z,3.03
2023-01-15T12:43:37.993Z,2.47
2023-01-15T12:46:08.676Z,3.25
2023-01-15T12:48:47.226Z,3.55
2023-01-15T12:51:24.362Z,2.50
2023-01-15T12:53:59.277Z,3.38
2023-01-15T12:56:37.687Z,3.60
2023-01-15T12:59:15.735Z,4.68
2023-01-15T13:01:57.103Z,2.75
2023-01-15T13:04:33.370Z,3.60
2023-01-15T13:07:11.589Z,3.17
2023-01-15T13:09:45.694Z,3.30
2023-01-15T13:12:16.994Z,3.75
2023-01-15T13:14:47.139Z,3.10
2023-01-15T13:17:28.800Z,3.97
2023-01-15T13:20:16.331Z,3.70
2023-01-15T13:22:56.138Z,4.15
2023-01-15T13:26:05.125Z,3.58
2023-01-15T13:28:58.930Z,4.43
2023-01-15T13:31:58.031Z,4.22
2023-01-15T13:34:36.978Z,4.82
2023-01-15T13:37:15.815Z,4.35
2023-01-15T13:39:46.792Z,3.67
2023-01-15T13:42:37.091Z,4.20
2023-01-15T13:45:37.367Z,4.45
2023-01-15T13:48:13.029Z,4.18
2023-01-15T13:50:52.479Z,3.65
2023-01-15T13:53:29.629Z,4.45
2023-01-15T13:56:05.623Z,4.18
2023-01-15T13:58:36.655Z,3.78
2023-01-15T14:01:24.924Z,3.35
2023-01-15T14:04:09.135Z,2.80
2023-01-15T14:06:44.506Z,4.40
2023-01-15T14:09:15.628Z,4.78
2023-01-15T14:12:05.479Z,3.70
2023-01-15T14:15:08.635Z,3.75
2023-01-15T14:18:13.120Z,4.45
2023-01-15T14:21:16.499Z,4.55
2023-01-15T14:24:04.153Z,3.75
2023-01-15T14:26:46.591Z,4.28
2023-01-15T14:29:51.987Z,4.20
2023-01-15T14:32:39.340Z,4.38
2023-01-15T14:35:15.617Z,4.43
2023-01-15T14:37:54.704Z,4.43
2023-01-15T14:40:28.158Z,3.25
2023-01-15T14:43:01.829Z,3.10
2023-01-15T14:45:34.002Z,4.68
2023-01-15T14:48:05.296Z,5.88
2023-01-15T14:50:42.119Z,4.00
2023-01-15T14:53:33.625Z,4.65
2023-01-15T14:56:14.792Z,3.60
2023-01-15T14:58:53.470Z,4.40
2023-01-15T15:01:47.171Z,4.88
2023-01-15T15:04:25.638Z,4.55
2023-01-15T15:06:59.410Z,4.63
2023-01-15T15:09:37.889Z,5.03
2023-01-15T15:12:27.135Z,4.18
2023-01-15T15:15:06.609Z,4.93
2023-01-15T15:18:00.638Z,4.35
2023-01-15T15:20:39.582Z,3.95
2023-01-15T15:23:16.641Z,4.53
2023-01-15T15:25:57.189Z,3.65
2023-01-15T15:28:26.014Z,5.32
2023-01-15T15:31:00.075Z,5.15
2023-01-15T15:33:41.627Z,5.70
2023-01-15T15:36:11.745Z,3.92
2023-01-15T15:38:45.138Z,4.75
2023-01-15T15:41:15.600Z,5.97
2023-01-15T15:44:09.176Z,5.10
2023-01-15T15:46:55.832Z,5.53
2023-01-15T15:49:24.968Z,5.80
2023-01-15T15:51:56.082Z,5.28
2023-01-15T15:54:27.968Z,6.25
2023-01-15T15:57:03.454Z,5.65
2023-01-15T15:59:35.600Z,5.50
2023-01-15T16:02:18.203Z,5.70
2023-01-15T16:04:49.960Z,5.90
2023-01-15T16:07:28.022Z,4.47
2023-01-15T16:10:02.053Z,4.43
2023-01-15T16:12:35.941Z,4.57
2023-01-15T16:15:08.932Z,4.47
2023-01-15T16:17:41.481Z,4.10
2023-01-15T16:20:17.879Z,3.50
2023-01-15T16:22:48.657Z,2.72
2023-01-15T16:25:27.030Z,1.15
2023-01-15T16:27:57.703Z,1.55
2023-01-15T16:30:27.932Z,1.40
2023-01-15T16:33:03.256Z,1.77
2023-01-15T16:35:37.492Z,1.25
2023-01-15T16:38:17.750Z,1.30
2023-01-15T16:40:49.037Z,1.45
2023-01-15T16:43:23.033Z,1.73
2023-01-15T16:46:07.357Z,1.42
2023-01-15T16:48:49.146Z,2.78
2023-01-15T16:51:42.475Z,2.05
2023-01-15T16:54:46.956Z,2.13
2023-01-15T16:57:36.368Z,2.08
2023-01-15T17:00:31.597Z,1.48
2023-01-15T17:03:01.768Z,1.58
2023-01-15T17:05:33.864Z,1.58
2023-01-15T17:08:03.359Z,1.75
2023-01-15T17:10:32.615Z,1.63
2023-01-15T17:13:05.860Z,1.88
2023-01-15T17:15:44.435Z,1.70
2023-01-15T17:18:41.042Z,1.98
2023-01-15T17:21:18.677Z,1.52
2023-01-15T17:23:49.796Z,1.92
2023-01-15T17:26:25.281Z,2.03
2023-01-15T17:29:04.532Z,1.95
2023-01-15T17:31:37.267Z,1.38
2023-01-15T17:34:07.266Z,1.58
2023-01-15T17:36:38.511Z,2.05
2023-01-15T17:39:13.472Z,2.17
2023-01-15T17:41:43.780Z,2.85
2023-01-15T17:44:14.607Z,1.65
2023-01-15T17:46:47.196Z,1.33
2023-01-15T17:49:16.960Z,1.95
2023-01-15T17:51:49.740Z,1.70
2023-01-15T17:54:44.248Z,1.63
2023-01-15T17:57:32.494Z,1.60
2023-01-15T18:00:19.224Z,1.42
2023-01-15T18:03:08.231Z,0.98
2023-01-15T18:05:40.105Z,1.55
2023-01-15T18:08:15.049Z,0.98
2023-01-15T18:10:46.622Z,0.80
2023-01-15T18:13:18.620Z,1.33
2023-01-15T18:15:48.551Z,1.65
2023-01-15T18:18:21.639Z,1.73
2023-01-15T18:20:52.203Z,1.25
2023-01-15T18:23:23.369Z,1.70
2023-01-15T18:25:54.467Z,1.15
2023-01-15T18:28:24.511Z,1.00
2023-01-15T18:30:54.025Z,1.83
2023-01-15T18:33:25.896Z,1.25
2023-01-15T18:36:06.430Z,1.50
2023-01-15T18:38:41.191Z,1.38
2023-01-15T18:41:13.224Z,1.17
2023-01-15T18:44:00.208Z,1.05
2023-01-15T18:46:45.535Z,1.50
2023-01-15T18:49:18.552Z,1.10
2023-01-15T18:52:07.899Z,1.80
2023-01-15T18:54:39.628Z,2.25
2023-01-15T18:57:10.597Z,2.45
2023-01-15T18:59:41.400Z,1.73
2023-01-15T19:02:15.208Z,1.50
2023-01-15T19:04:49.209Z,1.17
2023-01-15T19:07:20.468Z,2.25
2023-01-15T19:09:50.503Z,1.65
2023-01-15T19:12:21.868Z,1.45
2023-01-15T19:15:09.066Z,2.65
2023-01-15T19:17:56.608Z,1.20
2023-01-15T19:20:28.757Z,2.60
2023-01-15T19:23:04.165Z,1.60
2023-01-15T19:25:41.626Z,1.73
2023-01-15T19:28:16.070Z,1.35
2023-01-15T19:31:11.130Z,2.72
2023-01-15T19:33:45.228Z,1.92
2023-01-15T19:36:16.847Z,1.23
2023-01-15T19:38:47.304Z,1.73
2023-01-15T19:41:34.573Z,1.20
2023-01-15T19:44:24.745Z,0.98
2023-01-15T19:47:12.230Z,1.10
2023-01-15T19:50:06.831Z,1.75
2023-01-15T19:52:39.149Z,2.10
2023-01-15T19:55:14.291Z,1.88
2023-01-15T19:57:46.785Z,2.58
2023-01-15T20:00:21.114Z,3.00
2023-01-15T20:02:52.694Z,2.00
2023-01-15T20:05:23.632Z,2.03
2023-01-15T20:07:54.112Z,0.93
2023-01-15T20:10:26.411Z,0.68
2023-01-15T20:13:14.202Z,0.90
2023-01-15T20:15:47.524Z,1.27
2023-01-15T20:18:19.348Z,1.85
2023-01-15T20:20:49.903Z,1.50
2023-01-15T20:23:21.972Z,3.50
2023-01-15T20:25:53.342Z,3.60
2023-01-15T20:28:23.243Z,2.03
2023-01-15T20:30:54.001Z,1.70
2023-01-15T20:33:23.438Z,1.75
2023-01-15T20:35:54.997Z,1.30
2023-01-15T20:38:29.340Z,1.30
2023-01-15T20:41:20.068Z,0.73
2023-01-15T20:44:07.754Z,1.90
2023-01-15T20:46:38.636Z,1.83
2023-01-15T20:49:25.826Z,1.75
2023-01-15T20:51:57.381Z,1.48
2023-01-15T20:54:28.977Z,0.60
2023-01-15T20:56:58.647Z,1.50
2023-01-15T20:59:28.788Z,0.82
2023-01-15T21:01:58.491Z,1.40
2023-01-15T21:04:28.616Z,1.33
2023-01-15T21:06:57.747Z,1.20
2023-01-15T21:09:33.598Z,1.45
2023-01-15T21:12:02.629Z,1.77
2023-01-15T21:14:31.581Z,1.00
2023-01-15T21:17:00.453Z,1.63
2023-01-15T21:19:32.105Z,1.13
2023-01-15T21:22:00.595Z,1.30
2023-01-15T21:24:31.992Z,1.00
2023-01-15T21:27:01.320Z,1.13
2023-01-15T21:29:30.940Z,1.65
2023-01-15T21:32:00.085Z,1.25
2023-01-15T21:34:29.056Z,0.82
2023-01-15T21:36:57.874Z,1.10
2023-01-15T21:39:27.509Z,1.27
2023-01-15T21:42:15.588Z,1.27
2023-01-15T21:44:44.661Z,1.50
2023-01-15T21:47:15.874Z,1.35
2023-01-15T21:49:44.975Z,0.73
2023-01-15T21:52:17.236Z,1.05
2023-01-15T21:54:46.397Z,1.08
2023-01-15T21:57:19.048Z,1.38
2023-01-15T21:59:47.589Z,1.20
2023-01-15T22:02:20.271Z,0.80
2023-01-15T22:04:49.105Z,0.80
2023-01-15T22:07:18.604Z,0.95
2023-01-15T22:09:47.212Z,0.68
2023-01-15T22:12:17.025Z,0.85
2023-01-15T22:14:45.652Z,0.85
2023-01-15T22:17:14.159Z,0.70
2023-01-15T22:19:42.657Z,0.63
2023-01-15T22:22:12.449Z,0.60
2023-01-15T22:24:41.888Z,0.60
2023-01-15T22:27:15.721Z,0.63
2023-01-15T22:29:45.612Z,0.50
2023-01-15T22:32:16.309Z,0.52
2023-01-15T22:34:45.316Z,0.70
2023-01-15T22:37:15.325Z,0.40
2023-01-15T22:39:43.749Z,0.50
2023-01-15T22:42:25.298Z,0.30
2023-01-15T22:44:57.259Z,0.40
2023-01-15T22:47:25.775Z,1.08
2023-01-15T22:49:54.270Z,0.50
2023-01-15T22:52:25.338Z,0.57
2023-01-15T22:54:54.026Z,0.75
2023-01-15T22:57:22.627Z,0.95
2023-01-15T22:59:51.517Z,0.57
2023-01-15T23:02:42.408Z,0.70
2023-01-15T23:05:12.380Z,0.60
2023-01-15T23:07:41.751Z,0.55
2023-01-15T23:10:12.620Z,0.45
2023-01-15T23:12:42.260Z,0.60
2023-01-15T23:15:13.555Z,0.30
2023-01-15T23:17:44.105Z,0.40
2023-01-15T23:20:14.234Z,0.60
2023-01-15T23:22:42.748Z,1.08
2023-01-15T23:25:11.307Z,0.43
2023-01-15T23:27:39.763Z,0.68
2023-01-15T23:30:10.392Z,0.70
2023-01-15T23:32:39.791Z,0.60
2023-01-15T23:35:11.072Z,0.50
2023-01-15T23:37:39.521Z,0.52
2023-01-15T23:40:10.342Z,0.63
2023-01-15T23:42:56.303Z,0.80
2023-01-15T23:45:53.451Z,1.00
2023-01-15T23:48:21.909Z,0.70
2023-01-15T23:50:51.750Z,0.95
2023-01-15T23:53:20.216Z,0.82
2023-01-15T23:55:48.651Z,0.70
2023-01-15T23:58:17.140Z,0.82
